Time;durP1;ratioP1;P1;durP2;ratioP2;P2;SDS_P1;SDS_P2;PMS_P1;PMS_P2;Temp;Humidity;BMP_temperature;BMP_pressure;BME280_temperature;BME280_humidity;BME280_pressure;Samples;Min_cycle;Max_cycle;Signal;HPM_P1;HPM_P2
2023/06/04 00:01:45;;;;;;;5.18;2.40;;;15.30;50.20;;;;;;6122075;23;20484;-67
2023/06/04 00:04:11;;;;;;;4.65;2.05;;;15.30;50.20;;;;;;6122221;23;20097;-67
2023/06/04 00:06:37;;;;;;;4.47;1.60;;;15.20;50.30;;;;;;6121867;23;20041;-68
2023/06/04 00:09:02;;;;;;;2.97;1.65;;;15.20;50.40;;;;;;6122241;23;20009;-68
2023/06/04 00:11:28;;;;;;;3.58;1.80;;;15.20;50.60;;;;;;6121827;23;20014;-67
2023/06/04 00:13:53;;;;;;;3.25;1.60;;;15.10;50.80;;;;;;6122317;23;20014;-67
2023/06/04 00:16:19;;;;;;;3.40;1.70;;;15.10;51.00;;;;;;6122146;23;20026;-68
2023/06/04 00:18:44;;;;;;;3.38;1.80;;;15.10;51.20;;;;;;6123170;23;20365;-67
2023/06/04 00:21:10;;;;;;;3.40;2.30;;;15.10;51.50;;;;;;6122117;23;20018;-67
2023/06/04 00:23:36;;;;;;;4.53;2.20;;;15.00;51.70;;;;;;6122343;23;20542;-67
2023/06/04 00:26:01;;;;;;;3.10;1.80;;;15.10;51.90;;;;;;6121394;23;20479;-67
2023/06/04 00:28:27;;;;;;;3.22;1.98;;;15.00;52.00;;;;;;6122132;23;20014;-68
2023/06/04 00:30:52;;;;;;;3.90;2.13;;;15.00;52.20;;;;;;6121355;23;20033;-67
2023/06/04 00:33:18;;;;;;;4.10;2.17;;;15.00;52.40;;;;;;6121683;23;20017;-68
2023/06/04 00:35:44;;;;;;;2.60;1.92;;;15.00;52.70;;;;;;6121334;23;20108;-68
2023/06/04 00:38:10;;;;;;;11.57;2.38;;;15.00;52.90;;;;;;6123733;23;20006;-68
2023/06/04 00:40:35;;;;;;;3.55;2.10;;;15.00;53.10;;;;;;6121193;23;20078;-67
2023/06/04 00:43:01;;;;;;;2.88;1.60;;;14.90;53.30;;;;;;6122622;23;20014;-67
2023/06/04 00:45:30;;;;;;;4.10;1.50;;;14.90;53.40;;;;;;6121530;23;20014;-67
2023/06/04 00:47:56;;;;;;;2.63;1.58;;;14.90;53.50;;;;;;6122885;23;20018;-67
2023/06/04 00:50:22;;;;;;;2.83;1.60;;;14.90;53.70;;;;;;6121879;23;20317;-68
2023/06/04 00:52:49;;;;;;;4.18;2.15;;;14.90;53.90;;;;;;6122170;23;20168;-68
2023/06/04 00:55:17;;;;;;;3.55;1.98;;;14.90;54.00;;;;;;6122253;23;20018;-67
2023/06/04 00:57:44;;;;;;;3.97;2.00;;;14.80;54.20;;;;;;6121722;23;20108;-68
2023/06/04 01:00:10;;;;;;;3.85;1.70;;;14.80;54.50;;;;;;6095637;23;20042;-67
2023/06/04 01:02:38;;;;;;;7.45;1.70;;;14.80;54.80;;;;;;6119889;23;20025;-68
2023/06/04 01:05:19;;;;;;;6.05;2.10;;;14.70;54.90;;;;;;6122362;23;20009;-68
2023/06/04 01:07:46;;;;;;;2.05;1.30;;;14.80;55.10;;;;;;6121566;23;20012;-67
2023/06/04 01:10:13;;;;;;;3.88;2.22;;;14.70;55.10;;;;;;6121707;23;20006;-67
2023/06/04 01:12:40;;;;;;;4.28;1.60;;;14.70;55.10;;;;;;6122351;23;20108;-67
2023/06/04 01:15:07;;;;;;;3.15;1.90;;;14.60;55.30;;;;;;6120907;23;20018;-69
2023/06/04 01:17:38;;;;;;;4.18;2.10;;;14.70;55.40;;;;;;6121837;23;20022;-66
2023/06/04 01:20:32;;;;;;;2.80;1.45;;;14.60;55.60;;;;;;6120985;23;20010;-67
2023/06/04 01:23:20;;;;;;;3.30;1.60;;;14.60;55.90;;;;;;6115185;23;20010;-66
2023/06/04 01:25:49;;;;;;;2.58;1.65;;;14.60;55.90;;;;;;6122879;23;20028;-66
2023/06/04 01:28:15;;;;;;;2.40;1.52;;;14.50;55.90;;;;;;6124322;23;20013;-66
2023/06/04 01:30:45;;;;;;;3.55;1.60;;;14.50;56.20;;;;;;6123180;23;20037;-67
2023/06/04 01:33:13;;;;;;;4.35;2.38;;;14.50;56.40;;;;;;6123157;23;20006;-67
2023/06/04 01:35:38;;;;;;;2.83;1.70;;;14.50;57.10;;;;;;6124499;23;20017;-67
2023/06/04 01:38:04;;;;;;;2.75;1.42;;;14.50;56.60;;;;;;6124644;23;20010;-66
2023/06/04 01:40:30;;;;;;;2.05;1.38;;;14.40;56.60;;;;;;6122950;23;20424;-67
2023/06/04 01:42:56;;;;;;;3.33;1.50;;;14.40;56.70;;;;;;6122733;23;20022;-67
2023/06/04 01:45:23;;;;;;;3.20;1.73;;;14.40;56.80;;;;;;6120109;23;20412;-67
2023/06/04 01:47:49;;;;;;;2.95;1.70;;;14.30;57.00;;;;;;6124040;23;20061;-66
2023/06/04 01:50:15;;;;;;;3.33;1.73;;;14.40;57.30;;;;;;6124123;23;20041;-67
2023/06/04 01:52:40;;;;;;;2.95;2.13;;;14.30;57.30;;;;;;6124287;23;20006;-66
2023/06/04 01:55:12;;;;;;;2.92;1.52;;;14.30;57.40;;;;;;6122754;23;20045;-67
2023/06/04 01:57:39;;;;;;;4.15;1.75;;;14.30;57.60;;;;;;6122610;23;20444;-67
2023/06/04 02:00:08;;;;;;;3.65;1.58;;;14.20;57.60;;;;;;6122212;23;20006;-67
2023/06/04 02:02:35;;;;;;;2.45;1.52;;;14.30;57.90;;;;;;6125056;23;20380;-67
2023/06/04 02:05:01;;;;;;;3.58;1.40;;;14.20;57.90;;;;;;6122270;23;20021;-68
2023/06/04 02:07:27;;;;;;;1.98;1.20;;;14.20;57.90;;;;;;6123750;23;20009;-67
2023/06/04 02:09:53;;;;;;;3.20;1.58;;;14.10;58.00;;;;;;6123064;23;20010;-67
2023/06/04 02:12:18;;;;;;;2.55;1.55;;;14.10;58.10;;;;;;6123277;23;20029;-67
2023/06/04 02:14:46;;;;;;;2.38;1.40;;;14.10;58.20;;;;;;6123102;23;20384;-67
2023/06/04 02:17:12;;;;;;;1.83;1.30;;;14.00;58.30;;;;;;6123739;23;20088;-67
2023/06/04 02:19:44;;;;;;;2.40;1.48;;;14.00;58.60;;;;;;6123713;23;20034;-66
2023/06/04 02:22:13;;;;;;;3.25;1.58;;;14.00;58.80;;;;;;6123959;23;20073;-67
2023/06/04 02:24:42;;;;;;;2.40;1.40;;;13.90;59.00;;;;;;6123580;23;20026;-67
2023/06/04 02:27:08;;;;;;;2.25;1.50;;;13.90;59.00;;;;;;6122418;23;20403;-67
2023/06/04 02:29:33;;;;;;;2.45;1.42;;;13.80;59.10;;;;;;6123265;23;20010;-67
2023/06/04 02:31:59;;;;;;;2.65;1.60;;;13.80;59.30;;;;;;6123284;23;20561;-67
2023/06/04 02:34:25;;;;;;;3.20;1.60;;;13.80;60.00;;;;;;6122835;23;20022;-67
2023/06/04 02:36:50;;;;;;;2.83;1.48;;;13.70;59.40;;;;;;6123829;23;20022;-67
2023/06/04 02:39:20;;;;;;;2.53;1.50;;;13.80;59.60;;;;;;6123021;23;20010;-67
2023/06/04 02:41:45;;;;;;;4.18;1.50;;;13.70;59.90;;;;;;6122252;23;20420;-64
2023/06/04 02:44:12;;;;;;;2.58;1.40;;;13.70;59.80;;;;;;6122403;23;20081;-64
2023/06/04 02:46:37;;;;;;;2.35;1.35;;;13.60;60.10;;;;;;6122609;23;20436;-65
2023/06/04 02:49:04;;;;;;;2.58;1.60;;;13.60;60.40;;;;;;6123664;23;20065;-66
2023/06/04 02:51:29;;;;;;;4.20;1.42;;;13.60;60.60;;;;;;6123638;23;20324;-65
2023/06/04 02:53:56;;;;;;;3.10;1.40;;;13.60;60.60;;;;;;6122427;23;20013;-65
2023/06/04 02:56:22;;;;;;;2.40;1.45;;;13.60;60.80;;;;;;6122762;23;20025;-65
2023/06/04 02:58:52;;;;;;;3.45;1.73;;;13.50;61.00;;;;;;6121542;23;20440;-64
2023/06/04 03:01:22;;;;;;;3.35;1.77;;;13.60;61.10;;;;;;6097510;23;20045;-66
2023/06/04 03:03:48;;;;;;;2.72;1.30;;;13.50;61.20;;;;;;6122494;23;20010;-66
2023/06/04 03:06:15;;;;;;;2.65;1.70;;;13.60;61.40;;;;;;6122533;23;20061;-66
2023/06/04 03:08:41;;;;;;;2.50;1.40;;;13.60;61.40;;;;;;6122552;23;20027;-65
2023/06/04 03:11:06;;;;;;;1.92;1.40;;;13.60;61.30;;;;;;6122745;23;20042;-66
2023/06/04 03:13:32;;;;;;;5.25;1.65;;;13.60;61.30;;;;;;6122987;23;20010;-67
2023/06/04 03:16:00;;;;;;;4.28;2.10;;;13.60;61.50;;;;;;6121632;23;20022;-66
2023/06/04 03:18:27;;;;;;;3.20;1.65;;;13.50;61.50;;;;;;6122297;23;20025;-67
2023/06/04 03:20:53;;;;;;;3.90;2.13;;;13.60;61.60;;;;;;6122665;23;20010;-67
2023/06/04 03:23:20;;;;;;;3.83;1.83;;;13.60;61.70;;;;;;6121988;23;20389;-66
2023/06/04 03:25:45;;;;;;;6.15;1.70;;;13.50;61.70;;;;;;6122116;23;20048;-67
2023/06/04 03:28:11;;;;;;;2.22;1.60;;;13.60;61.80;;;;;;6122236;23;20006;-67
2023/06/04 03:30:37;;;;;;;3.95;1.73;;;13.50;61.80;;;;;;6122538;23;20020;-66
2023/06/04 03:33:02;;;;;;;2.75;1.60;;;13.50;61.70;;;;;;6121992;23;20017;-67
2023/06/04 03:35:28;;;;;;;3.88;2.22;;;13.50;62.00;;;;;;6121920;23;20002;-66
2023/06/04 03:37:54;;;;;;;4.55;1.85;;;13.60;62.20;;;;;;6123443;23;20017;-66
2023/06/04 03:40:20;;;;;;;5.10;1.35;;;13.60;62.40;;;;;;6123006;23;20006;-67
2023/06/04 03:42:45;;;;;;;3.65;1.60;;;13.60;62.40;;;;;;6122425;23;20545;-67
2023/06/04 03:45:11;;;;;;;2.25;1.50;;;13.60;62.50;;;;;;6122016;23;20002;-66
2023/06/04 03:47:38;;;;;;;3.88;1.83;;;13.60;62.60;;;;;;6122676;23;20432;-66
2023/06/04 03:50:04;;;;;;;2.80;1.80;;;13.60;62.80;;;;;;6122470;23;20010;-66
2023/06/04 03:52:31;;;;;;;4.10;1.50;;;13.70;63.10;;;;;;6121529;23;20018;-66
2023/06/04 03:54:56;;;;;;;3.33;1.95;;;13.60;63.30;;;;;;6121445;23;20038;-67
2023/06/04 03:57:22;;;;;;;4.32;1.75;;;13.60;63.40;;;;;;6121876;23;20104;-66
2023/06/04 03:59:48;;;;;;;5.22;1.67;;;13.70;63.60;;;;;;6122181;23;20033;-66
2023/06/04 04:02:14;;;;;;;3.13;2.13;;;13.70;63.80;;;;;;6123230;23;20412;-67
2023/06/04 04:04:40;;;;;;;3.15;1.80;;;13.70;64.00;;;;;;6122989;23;20068;-67
2023/06/04 04:07:06;;;;;;;4.85;1.85;;;13.70;64.00;;;;;;6122136;23;20116;-67
2023/06/04 04:09:31;;;;;;;4.53;1.60;;;13.80;63.90;;;;;;6122334;23;20088;-67
2023/06/04 04:11:57;;;;;;;2.58;1.70;;;13.80;64.00;;;;;;6122920;23;20495;-67
2023/06/04 04:14:22;;;;;;;2.60;1.42;;;13.90;63.90;;;;;;6121255;23;20009;-67
2023/06/04 04:16:48;;;;;;;4.35;1.58;;;13.90;63.80;;;;;;6122655;23;20044;-68
2023/06/04 04:19:14;;;;;;;2.95;1.50;;;13.90;63.40;;;;;;6121686;23;20113;-68
2023/06/04 04:21:40;;;;;;;2.97;1.50;;;14.00;63.30;;;;;;6122971;23;20317;-68
2023/06/04 04:24:06;;;;;;;2.60;1.40;;;14.00;63.30;;;;;;6121731;23;20022;-68
2023/06/04 04:26:32;;;;;;;2.65;1.73;;;14.00;63.00;;;;;;6123032;23;20010;-68
2023/06/04 04:28:59;;;;;;;2.50;1.50;;;14.10;63.10;;;;;;6121796;23;20137;-68
2023/06/04 04:31:26;;;;;;;3.85;1.27;;;14.10;63.20;;;;;;6121584;23;20021;-68
2023/06/04 04:33:52;;;;;;;1.98;1.48;;;14.20;63.30;;;;;;6122544;23;20014;-66
2023/06/04 04:36:18;;;;;;;2.60;1.60;;;14.20;63.20;;;;;;6122149;23;20018;-66
2023/06/04 04:38:53;;;;;;;4.95;2.17;;;14.30;63.30;;;;;;6122560;23;20010;-66
2023/06/04 04:41:22;;;;;;;3.47;1.90;;;14.30;63.20;;;;;;6121545;23;20089;-68
2023/06/04 04:43:48;;;;;;;2.45;1.55;;;14.30;63.00;;;;;;6122180;23;20388;-67
2023/06/04 04:46:14;;;;;;;3.65;1.50;;;14.30;63.00;;;;;;6122403;23;20094;-67
2023/06/04 04:48:42;;;;;;;3.60;1.90;;;14.30;63.10;;;;;;6121014;23;20018;-67
2023/06/04 04:51:07;;;;;;;2.47;1.50;;;14.30;63.30;;;;;;6122500;23;20081;-67
2023/06/04 04:53:33;;;;;;;2.65;1.60;;;14.40;63.00;;;;;;6122642;23;20097;-67
2023/06/04 04:55:59;;;;;;;5.13;1.95;;;14.40;63.00;;;;;;6121684;23;20121;-67
2023/06/04 04:58:25;;;;;;;6.25;1.80;;;14.50;63.10;;;;;;6121359;23;20512;-68
2023/06/04 05:00:50;;;;;;;3.83;2.03;;;14.50;63.20;;;;;;6123212;23;20014;-68
2023/06/04 05:03:16;;;;;;;4.00;1.45;;;14.50;63.20;;;;;;6124634;23;20010;-68
2023/06/04 05:05:43;;;;;;;2.35;1.40;;;14.60;63.20;;;;;;6122662;23;20013;-68
2023/06/04 05:08:09;;;;;;;4.05;1.92;;;14.60;63.30;;;;;;6123212;23;20006;-66
2023/06/04 05:10:35;;;;;;;2.22;1.60;;;14.70;63.30;;;;;;6123793;23;20486;-67
2023/06/04 05:13:01;;;;;;;3.38;1.40;;;14.70;63.40;;;;;;6123335;23;20081;-68
2023/06/04 05:15:27;;;;;;;5.15;1.88;;;14.70;63.00;;;;;;6122948;23;20006;-69
2023/06/04 05:17:53;;;;;;;2.67;1.65;;;14.70;62.70;;;;;;6122279;23;20018;-72
2023/06/04 05:20:20;;;;;;;2.63;1.50;;;14.80;62.40;;;;;;6123490;23;20123;-71
2023/06/04 05:22:46;;;;;;;2.28;1.20;;;14.80;62.50;;;;;;6097490;23;20014;-73
2023/06/04 05:25:12;;;;;;;3.63;1.95;;;14.80;62.40;;;;;;6124075;23;20028;-72
2023/06/04 05:27:39;;;;;;;2.80;1.52;;;14.90;62.40;;;;;;6124051;23;20013;-71
2023/06/04 05:30:06;;;;;;;2.75;1.33;;;15.00;62.60;;;;;;6123036;23;20018;-72
2023/06/04 05:32:32;;;;;;;2.53;1.40;;;15.00;62.70;;;;;;6123233;23;20017;-71
2023/06/04 05:34:58;;;;;;;1.90;1.30;;;15.10;62.50;;;;;;6123391;23;20018;-72
2023/06/04 05:37:28;;;;;;;2.78;1.50;;;15.10;62.80;;;;;;6124212;23;20052;-72
2023/06/04 05:40:00;;;;;;;5.45;1.50;;;15.20;62.60;;;;;;6123614;23;20006;-72
2023/06/04 05:42:25;;;;;;;3.00;1.58;;;15.20;62.80;;;;;;6124115;23;20100;-72
2023/06/04 05:44:51;;;;;;;3.50;1.65;;;15.30;62.70;;;;;;6097180;23;20009;-71
2023/06/04 05:47:18;;;;;;;2.08;1.40;;;15.40;62.40;;;;;;6122904;23;20717;-71
2023/06/04 05:49:43;;;;;;;7.20;1.70;;;15.40;62.00;;;;;;6122470;23;20025;-71
2023/06/04 05:52:09;;;;;;;2.80;1.65;;;15.40;61.80;;;;;;6097963;23;20336;-66
2023/06/04 05:54:36;;;;;;;3.42;1.30;;;15.50;61.80;;;;;;6123133;23;20073;-68
2023/06/04 05:57:02;;;;;;;3.40;1.90;;;15.60;62.20;;;;;;6123344;23;20376;-68
2023/06/04 05:59:29;;;;;;;1.88;1.10;;;15.60;61.90;;;;;;6122361;23;20009;-68
2023/06/04 06:01:54;;;;;;;2.63;1.20;;;15.70;62.10;;;;;;6096967;23;20021;-68
2023/06/04 06:04:20;;;;;;;3.65;1.45;;;15.80;62.10;;;;;;6123463;23;20006;-68
2023/06/04 06:06:48;;;;;;;4.28;1.63;;;15.90;61.90;;;;;;6124784;23;20436;-67
2023/06/04 06:09:14;;;;;;;2.78;1.48;;;15.90;61.80;;;;;;6122258;23;20006;-68
2023/06/04 06:11:40;;;;;;;1.92;1.17;;;16.10;61.40;;;;;;6124135;23;20097;-71
2023/06/04 06:14:06;;;;;;;4.38;1.27;;;16.20;61.50;;;;;;6097673;23;20033;-67
2023/06/04 06:16:32;;;;;;;3.33;1.20;;;16.20;60.70;;;;;;6123080;23;20531;-69
2023/06/04 06:18:58;;;;;;;2.28;1.40;;;16.20;60.60;;;;;;6122627;23;20017;-68
2023/06/04 06:21:24;;;;;;;3.08;1.40;;;16.30;61.00;;;;;;6122503;23;20005;-69
2023/06/04 06:23:50;;;;;;;2.63;1.30;;;16.40;60.60;;;;;;6123255;23;20097;-69
2023/06/04 06:26:15;;;;;;;2.45;1.50;;;16.50;60.60;;;;;;6123353;23;20392;-72
2023/06/04 06:28:41;;;;;;;3.63;1.20;;;16.60;60.40;;;;;;6096703;23;20036;-71
2023/06/04 06:31:07;;;;;;;1.52;1.00;;;16.60;59.30;;;;;;6122376;23;20018;-67
2023/06/04 06:33:32;;;;;;;3.35;1.48;;;16.70;58.90;;;;;;6120577;23;20013;-68
2023/06/04 06:36:00;;;;;;;5.13;1.50;;;16.80;59.80;;;;;;6121467;23;20057;-70
2023/06/04 06:38:26;;;;;;;1.85;1.00;;;16.90;59.00;;;;;;6123384;23;20020;-67
2023/06/04 06:40:52;;;;;;;6.93;1.50;;;16.90;58.10;;;;;;6121187;23;20084;-68
2023/06/04 06:43:18;;;;;;;3.08;1.27;;;17.00;57.80;;;;;;6122502;23;20591;-68
2023/06/04 06:45:44;;;;;;;2.60;1.02;;;17.10;57.60;;;;;;6121385;23;20014;-68
2023/06/04 06:48:09;;;;;;;4.22;1.17;;;17.20;57.10;;;;;;6096278;23;20050;-68
2023/06/04 06:50:37;;;;;;;2.33;1.23;;;17.30;56.70;;;;;;6122550;23;20025;-68
2023/06/04 06:53:03;;;;;;;1.75;1.30;;;17.30;56.10;;;;;;6121466;23;20125;-69
2023/06/04 06:55:29;;;;;;;2.72;1.15;;;17.40;56.00;;;;;;6119920;23;20440;-69
2023/06/04 06:57:54;;;;;;;1.75;1.30;;;17.50;55.70;;;;;;6122309;23;20025;-69
2023/06/04 07:00:20;;;;;;;2.90;1.45;;;17.50;55.90;;;;;;6122606;23;20010;-68
2023/06/04 07:02:46;;;;;;;4.70;1.20;;;17.60;56.00;;;;;;6121828;23;20014;-69
2023/06/04 07:05:14;;;;;;;2.90;1.27;;;17.70;55.70;;;;;;6119927;23;20428;-70
2023/06/04 07:07:39;;;;;;;5.95;2.45;;;17.70;55.70;;;;;;6123278;23;20181;-70
2023/06/04 07:10:05;;;;;;;1.60;1.00;;;17.80;55.40;;;;;;6122237;23;20006;-69
2023/06/04 07:12:31;;;;;;;2.42;1.23;;;17.90;54.60;;;;;;6121977;23;20392;-67
2023/06/04 07:14:56;;;;;;;1.42;1.00;;;18.00;54.40;;;;;;6121650;23;20002;-70
2023/06/04 07:17:22;;;;;;;1.92;1.20;;;18.00;54.40;;;;;;6122307;23;20018;-65
2023/06/04 07:19:48;;;;;;;1.40;1.05;;;18.10;54.60;;;;;;6119637;23;20061;-64
2023/06/04 07:22:15;;;;;;;2.58;1.27;;;18.20;54.40;;;;;;6120425;23;20035;-66
2023/06/04 07:24:41;;;;;;;2.13;1.00;;;18.30;54.30;;;;;;6121008;23;20026;-65
2023/06/04 07:27:15;;;;;;;1.83;1.17;;;18.30;54.40;;;;;;6122108;23;20504;-66
2023/06/04 07:29:43;;;;;;;3.03;0.98;;;18.40;53.50;;;;;;6122502;23;20006;-66
2023/06/04 07:32:09;;;;;;;3.50;0.88;;;18.50;52.50;;;;;;6122549;23;20006;-66
2023/06/04 07:34:36;;;;;;;2.65;1.20;;;18.50;51.70;;;;;;6122293;23;20021;-66
2023/06/04 07:37:02;;;;;;;6.25;1.33;;;18.50;51.30;;;;;;6122253;23;20025;-67
2023/06/04 07:39:28;;;;;;;1.92;0.80;;;18.50;51.20;;;;;;6120347;23;20458;-66
2023/06/04 07:41:54;;;;;;;1.30;0.93;;;18.60;51.10;;;;;;6096812;23;20014;-65
2023/06/04 07:44:19;;;;;;;2.78;1.10;;;18.60;50.70;;;;;;6121806;23;20434;-66
2023/06/04 07:46:45;;;;;;;2.90;0.85;;;18.70;50.70;;;;;;6120727;23;20010;-66
2023/06/04 07:49:11;;;;;;;1.23;0.98;;;18.70;51.30;;;;;;6122401;23;20006;-65
2023/06/04 07:51:37;;;;;;;2.50;0.75;;;18.80;51.40;;;;;;6122608;23;20157;-65
2023/06/04 07:54:03;;;;;;;1.58;1.05;;;18.90;51.10;;;;;;6120892;23;20002;-65
2023/06/04 07:56:28;;;;;;;2.70;0.73;;;19.00;50.60;;;;;;6122712;23;20022;-65
2023/06/04 07:58:55;;;;;;;5.93;1.33;;;19.10;50.00;;;;;;6122417;23;20037;-65
2023/06/04 08:01:21;;;;;;;3.38;1.45;;;19.10;49.90;;;;;;6096298;23;20085;-66
2023/06/04 08:03:47;;;;;;;0.63;0.60;;;19.20;49.40;;;;;;6122024;23;20006;-65
2023/06/04 08:06:14;;;;;;;0.98;0.73;;;19.20;48.80;;;;;;6122006;23;20014;-66
2023/06/04 08:08:45;;;;;;;1.60;0.93;;;19.30;48.40;;;;;;6121663;23;20029;-66
2023/06/04 08:11:11;;;;;;;0.82;0.65;;;19.30;48.00;;;;;;6122244;23;20014;-65
2023/06/04 08:13:36;;;;;;;1.08;0.98;;;19.40;48.00;;;;;;6122137;23;20010;-65
2023/06/04 08:16:02;;;;;;;1.05;0.90;;;19.50;48.10;;;;;;6121310;23;20024;-66
2023/06/04 08:18:28;;;;;;;4.07;1.55;;;19.50;49.10;;;;;;6121611;23;20009;-65
2023/06/04 08:20:54;;;;;;;2.03;0.85;;;19.60;49.70;;;;;;6121272;23;20010;-66
2023/06/04 08:23:20;;;;;;;2.72;0.95;;;19.70;48.20;;;;;;6096035;23;20006;-66
2023/06/04 08:25:45;;;;;;;0.77;0.70;;;19.70;48.40;;;;;;6121775;23;20466;-65
2023/06/04 08:28:13;;;;;;;1.27;1.00;;;19.80;48.70;;;;;;6121818;23;20010;-66
2023/06/04 08:30:39;;;;;;;3.30;1.25;;;19.90;47.50;;;;;;6122104;23;20010;-65
2023/06/04 08:33:05;;;;;;;1.95;1.23;;;20.00;47.60;;;;;;6124295;23;20012;-65
2023/06/04 08:35:30;;;;;;;2.60;0.75;;;20.00;47.70;;;;;;6124607;23;20009;-66
2023/06/04 08:37:56;;;;;;;1.75;0.65;;;20.10;47.80;;;;;;6124381;23;20081;-67
2023/06/04 08:40:22;;;;;;;4.45;1.15;;;20.20;48.10;;;;;;6124683;23;20451;-66
2023/06/04 08:42:48;;;;;;;2.65;1.30;;;20.20;47.30;;;;;;6123537;23;20014;-65
2023/06/04 08:45:17;;;;;;;1.55;0.93;;;20.30;47.50;;;;;;6096718;23;20013;-66
2023/06/04 08:47:47;;;;;;;2.05;0.82;;;20.30;47.50;;;;;;6124626;23;20013;-67
2023/06/04 08:50:16;;;;;;;1.15;0.85;;;20.40;46.70;;;;;;6122013;23;20016;-65
2023/06/04 08:52:42;;;;;;;2.25;0.88;;;20.40;47.10;;;;;;6122400;23;20013;-65
2023/06/04 08:55:11;;;;;;;2.70;0.80;;;20.50;46.80;;;;;;6121956;23;20047;-67
2023/06/04 08:57:40;;;;;;;2.40;0.93;;;20.60;46.90;;;;;;6122231;23;20022;-67
2023/06/04 09:00:08;;;;;;;1.15;1.05;;;20.60;47.80;;;;;;6122248;23;20049;-67
2023/06/04 09:02:37;;;;;;;3.78;1.33;;;20.70;46.90;;;;;;6123737;23;20024;-67
2023/06/04 09:05:10;;;;;;;2.05;1.17;;;20.70;47.00;;;;;;6122456;23;20416;-67
2023/06/04 09:07:37;;;;;;;1.15;0.68;;;20.80;47.10;;;;;;6123538;23;20006;-67
2023/06/04 09:10:04;;;;;;;1.25;0.68;;;20.90;47.10;;;;;;6122466;23;20101;-67
2023/06/04 09:12:32;;;;;;;1.08;0.88;;;21.00;48.00;;;;;;6122623;23;20387;-67
2023/06/04 09:14:57;;;;;;;0.82;0.82;;;21.00;47.20;;;;;;6095492;23;20013;-67
2023/06/04 09:17:24;;;;;;;2.47;0.82;;;21.10;47.10;;;;;;6121989;23;20014;-67
2023/06/04 09:19:51;;;;;;;2.50;1.05;;;21.20;47.30;;;;;;6119759;23;20112;-64
2023/06/04 09:22:16;;;;;;;0.88;0.82;;;21.30;47.90;;;;;;6123283;23;20014;-63
2023/06/04 09:24:47;;;;;;;1.48;0.90;;;21.30;46.90;;;;;;6121275;23;20022;-64
2023/06/04 09:27:22;;;;;;;0.63;0.63;;;21.40;46.40;;;;;;6121987;23;20021;-65
2023/06/04 09:29:52;;;;;;;2.42;1.05;;;21.40;46.70;;;;;;6122543;23;20518;-73
2023/06/04 09:32:23;;;;;;;1.23;0.80;;;21.40;46.20;;;;;;6124070;23;20017;-75
2023/06/04 09:34:48;;;;;;;1.05;0.80;;;21.40;45.00;;;;;;6122978;23;20014;-70
2023/06/04 09:37:17;;;;;;;3.22;1.05;;;21.50;44.60;;;;;;6124073;23;20014;-72
2023/06/04 09:39:43;;;;;;;1.50;0.93;;;21.50;44.00;;;;;;6123652;23;20089;-72
2023/06/04 09:42:09;;;;;;;0.93;0.90;;;21.40;43.60;;;;;;6123898;23;20107;-72
2023/06/04 09:44:45;;;;;;;1.85;1.02;;;21.40;43.70;;;;;;6119710;23;20093;-71
2023/06/04 09:47:11;;;;;;;1.20;0.82;;;21.40;44.20;;;;;;6123416;23;20115;-72
2023/06/04 09:49:43;;;;;;;1.92;0.85;;;21.40;44.10;;;;;;6122094;23;20013;-72
2023/06/04 09:52:09;;;;;;;1.05;0.55;;;21.50;44.40;;;;;;6123405;23;20388;-74
2023/06/04 09:54:39;;;;;;;0.95;0.68;;;21.50;43.80;;;;;;6094539;23;20013;-75
2023/06/04 09:57:18;;;;;;;1.42;0.90;;;21.50;43.90;;;;;;6122922;23;20022;-63
2023/06/04 09:59:49;;;;;;;2.20;0.95;;;21.50;43.80;;;;;;6119718;23;20025;-63
2023/06/04 10:02:20;;;;;;;1.65;0.93;;;21.60;44.00;;;;;;6122922;23;20049;-63
2023/06/04 10:04:52;;;;;;;1.00;0.77;;;21.60;43.90;;;;;;6122436;23;20127;-63
2023/06/04 10:07:18;;;;;;;2.30;1.05;;;21.70;43.40;;;;;;6122384;23;20062;-63
2023/06/04 10:09:47;;;;;;;1.77;1.08;;;21.80;44.20;;;;;;6120336;23;20018;-64
2023/06/04 10:12:18;;;;;;;1.55;1.05;;;21.90;44.30;;;;;;6122356;23;20012;-64
2023/06/04 10:14:59;;;;;;;1.60;0.93;;;21.90;43.70;;;;;;6095382;23;20382;-64
2023/06/04 10:17:28;;;;;;;1.67;0.70;;;22.00;43.70;;;;;;6122456;23;20037;-64
2023/06/04 10:19:54;;;;;;;1.63;0.80;;;21.90;43.20;;;;;;6119893;23;20006;-62
2023/06/04 10:22:20;;;;;;;3.10;1.05;;;21.90;44.10;;;;;;6094515;23;20010;-63
2023/06/04 10:24:47;;;;;;;1.92;1.02;;;22.00;44.20;;;;;;6121291;23;20026;-63
2023/06/04 10:27:13;;;;;;;2.45;0.80;;;22.00;44.00;;;;;;6122953;23;20055;-63
2023/06/04 10:29:39;;;;;;;2.50;0.98;;;22.10;44.50;;;;;;6095738;23;20013;-63
2023/06/04 10:32:05;;;;;;;4.22;1.33;;;22.20;44.90;;;;;;6121269;23;20006;-62
2023/06/04 10:34:31;;;;;;;1.20;1.00;;;22.30;45.00;;;;;;6122137;23;20030;-64
2023/06/04 10:36:57;;;;;;;2.00;1.20;;;22.30;44.20;;;;;;6120361;23;20118;-64
2023/06/04 10:39:32;;;;;;;2.95;1.15;;;22.40;44.10;;;;;;6121213;23;20013;-64
2023/06/04 10:42:05;;;;;;;1.40;1.13;;;22.30;42.50;;;;;;6122685;23;20021;-64
2023/06/04 10:44:32;;;;;;;1.80;1.08;;;22.30;42.20;;;;;;6120168;23;20099;-64
2023/06/04 10:46:58;;;;;;;2.30;0.90;;;22.30;41.90;;;;;;6120995;23;20058;-63
2023/06/04 10:49:28;;;;;;;2.35;1.10;;;22.30;42.50;;;;;;6122182;23;20024;-64
2023/06/04 10:52:02;;;;;;;1.92;0.90;;;22.30;42.60;;;;;;6122735;23;20002;-63
2023/06/04 10:54:28;;;;;;;1.92;0.93;;;22.30;42.40;;;;;;6121990;23;20017;-63
2023/06/04 10:56:54;;;;;;;1.42;0.90;;;22.30;42.20;;;;;;6122007;23;20026;-63
2023/06/04 10:59:20;;;;;;;2.97;1.15;;;22.30;42.30;;;;;;6122742;23;20014;-62
2023/06/04 11:01:46;;;;;;;2.90;1.17;;;22.30;42.00;;;;;;6120184;23;20081;-63
2023/06/04 11:04:22;;;;;;;2.53;0.80;;;22.30;41.80;;;;;;6119752;23;20356;-64
2023/06/04 11:07:00;;;;;;;2.42;1.20;;;22.30;42.00;;;;;;6121655;23;20013;-63
2023/06/04 11:09:26;;;;;;;2.65;1.13;;;22.30;42.00;;;;;;6122068;23;20014;-64
2023/06/04 11:11:59;;;;;;;3.20;0.85;;;22.40;41.70;;;;;;6122132;23;20424;-61
2023/06/04 11:14:25;;;;;;;1.70;0.98;;;22.40;41.80;;;;;;6119362;23;20550;-62
2023/06/04 11:16:51;;;;;;;1.98;1.15;;;22.50;41.80;;;;;;6121344;23;20018;-64
2023/06/04 11:19:17;;;;;;;1.38;0.93;;;22.50;41.60;;;;;;6120329;23;20061;-63
2023/06/04 11:21:43;;;;;;;3.97;1.10;;;22.40;41.50;;;;;;6121693;23;20325;-62
2023/06/04 11:24:11;;;;;;;6.32;1.30;;;22.50;41.90;;;;;;6121382;23;20097;-63
2023/06/04 11:26:37;;;;;;;3.35;1.08;;;22.50;42.00;;;;;;6095509;23;20009;-63
2023/06/04 11:29:07;;;;;;;3.20;1.10;;;22.50;41.70;;;;;;6120978;23;20013;-64
2023/06/04 11:31:43;;;;;;;1.55;0.90;;;22.50;41.60;;;;;;6120661;23;20037;-60
2023/06/04 11:34:11;;;;;;;1.90;1.40;;;22.50;41.80;;;;;;6119284;23;20293;-62
2023/06/04 11:36:38;;;;;;;1.65;0.98;;;22.50;41.40;;;;;;6117492;23;20014;-62
2023/06/04 11:39:06;;;;;;;2.33;0.88;;;22.50;41.40;;;;;;6122315;23;20037;-62
2023/06/04 11:41:33;;;;;;;1.08;0.98;;;22.40;41.10;;;;;;6123095;23;20081;-62
2023/06/04 11:44:03;;;;;;;1.38;0.95;;;22.40;40.70;;;;;;6095695;23;20463;-62
2023/06/04 11:46:29;;;;;;;1.58;0.88;;;22.40;40.90;;;;;;6117973;23;20385;-61
2023/06/04 11:48:54;;;;;;;1.98;1.00;;;22.40;41.00;;;;;;6122009;23;20006;-63
2023/06/04 11:51:21;;;;;;;2.05;0.95;;;22.50;41.40;;;;;;6120208;23;20417;-63
2023/06/04 11:53:47;;;;;;;2.78;0.90;;;22.50;41.80;;;;;;6120453;23;20046;-61
2023/06/04 11:56:13;;;;;;;2.55;1.20;;;22.60;41.10;;;;;;6120976;23;20010;-61
2023/06/04 11:58:40;;;;;;;1.08;0.75;;;22.60;40.70;;;;;;6120145;23;20122;-62
2023/06/04 12:01:07;;;;;;;2.28;1.05;;;22.70;40.50;;;;;;6096597;23;20488;-62
2023/06/04 12:03:37;;;;;;;2.72;0.90;;;22.80;40.70;;;;;;6121620;23;20069;-63
2023/06/04 12:06:15;;;;;;;6.75;1.60;;;22.80;40.80;;;;;;6120468;23;20017;-62
2023/06/04 12:08:55;;;;;;;2.15;1.25;;;22.90;41.00;;;;;;6121123;23;20078;-62
2023/06/04 12:11:34;;;;;;;2.13;1.13;;;22.80;40.50;;;;;;6121557;23;20499;-62
2023/06/04 12:14:04;;;;;;;2.53;0.80;;;22.90;40.60;;;;;;6094903;23;20056;-62
2023/06/04 12:16:30;;;;;;;4.18;1.10;;;22.90;40.30;;;;;;6121965;23;20022;-62
2023/06/04 12:19:09;;;;;;;3.80;1.15;;;22.90;40.60;;;;;;6119736;23;20025;-62
2023/06/04 12:21:36;;;;;;;1.42;0.77;;;23.00;40.90;;;;;;6119857;23;20483;-64
2023/06/04 12:24:13;;;;;;;2.13;1.00;;;23.00;41.10;;;;;;6121412;23;20030;-63
2023/06/04 12:26:43;;;;;;;1.30;0.82;;;23.10;40.70;;;;;;6121653;23;20014;-63
2023/06/04 12:29:17;;;;;;;1.83;1.27;;;23.20;40.20;;;;;;6121163;23;20010;-62
2023/06/04 12:31:45;;;;;;;2.75;1.20;;;23.30;40.40;;;;;;6120332;23;20089;-62
2023/06/04 12:34:13;;;;;;;2.00;1.10;;;23.30;40.00;;;;;;6120327;23;20010;-62
2023/06/04 12:36:40;;;;;;;1.40;0.90;;;23.40;40.10;;;;;;6120950;23;20077;-62
2023/06/04 12:39:07;;;;;;;2.53;1.45;;;23.50;40.00;;;;;;6121195;23;20021;-62
2023/06/04 12:41:33;;;;;;;1.50;1.00;;;23.70;39.90;;;;;;6120657;23;20010;-62
2023/06/04 12:43:59;;;;;;;2.17;0.95;;;23.80;39.70;;;;;;6119646;23;20336;-62
2023/06/04 12:46:25;;;;;;;3.35;1.17;;;23.80;40.30;;;;;;6120003;23;20010;-63
2023/06/04 12:48:52;;;;;;;1.85;1.10;;;24.00;40.00;;;;;;6120759;23;20018;-72